4NK1 weather

B-Ville Airpark
Baldwinsville, New York, United States

Public forecast

Using degrees Fahrenheit for public forecast. Weather courtesy of forecast.io.

METAR (pilot weather report)

Closest report is Syracuse Hancock International Airport, 9.2 nm (17.1 km) ESE. Retrieved 2019/07/17 19:54 UTC (2 hours ago):

KSYR 171954Z 00000KT 10SM FEW030 BKN080 OVC130 24/21 A2990 RMK AO2 RAE36 SLP120 P0000 T02390206 $

TAF (pilot weather forecast)

Closest forecast is Syracuse Hancock International Airport, 9.2 nm (17.1 km) ESE. Retrieved 2019/07/17 18:42 UTC (3 hours ago):

TAF KSYR 171741Z 1718/1818 22004KT P6SM -SHRA SCT030 BKN040 TEMPO 1718/1721 3SM +SHRA BR FEW018 OVC025 FM180100 06003KT 6SM BR BKN025 FM180600 VRB03KT 4SM BR BKN012 TEMPO 1810/1812 2SM BR BKN008 FM181500 VRB04KT P6SM BKN015